createdAt,value
2022-09-16T00:01:19.898Z,89.36
2022-09-16T00:03:21.631Z,89.37
2022-09-16T00:05:23.198Z,89.55
2022-09-16T00:07:24.627Z,89.55
2022-09-16T00:09:26.078Z,89.99
2022-09-16T00:11:28.127Z,89.64
2022-09-16T00:13:29.655Z,89.80
2022-09-16T00:15:31.421Z,90.23
2022-09-16T00:17:32.921Z,90.08
2022-09-16T00:19:34.389Z,90.73
2022-09-16T00:21:35.891Z,90.27
2022-09-16T00:23:37.996Z,90.36
2022-09-16T00:25:39.552Z,90.38
2022-09-16T00:27:41.034Z,90.37
2022-09-16T00:29:42.571Z,90.50
2022-09-16T00:31:44.057Z,90.55
2022-09-16T00:33:45.542Z,90.53
2022-09-16T00:35:47.656Z,90.51
2022-09-16T00:37:49.116Z,90.58
2022-09-16T00:39:50.949Z,90.27
2022-09-16T00:41:52.422Z,90.68
2022-09-16T00:44:05.019Z,90.84
2022-09-16T00:46:06.532Z,91.14
2022-09-16T00:48:14.545Z,91.40
2022-09-16T00:50:21.400Z,91.41
2022-09-16T00:52:23.098Z,91.38
2022-09-16T00:54:25.937Z,91.67
2022-09-16T00:56:30.053Z,91.39
2022-09-16T00:59:02.151Z,91.50
2022-09-16T01:01:05.794Z,91.73
2022-09-16T01:03:07.331Z,91.59
2022-09-16T01:05:14.148Z,91.52
2022-09-16T01:07:16.897Z,91.34
2022-09-16T01:09:20.963Z,88.14
2022-09-16T01:11:22.470Z,88.81
2022-09-16T01:13:24.018Z,89.29
2022-09-16T01:15:41.194Z,89.64
2022-09-16T01:17:58.033Z,89.85
2022-09-16T01:20:27.396Z,89.77
2022-09-16T01:22:35.244Z,90.02
2022-09-16T01:24:54.653Z,90.08
2022-09-16T01:27:14.562Z,89.52
2022-09-16T01:29:37.780Z,89.44
2022-09-16T01:32:01.755Z,89.98
2022-09-16T01:34:22.146Z,90.32
2022-09-16T01:36:29.316Z,90.61
2022-09-16T01:39:00.617Z,90.89
2022-09-16T01:41:21.676Z,91.03
2022-09-16T01:43:57.442Z,91.21
2022-09-16T01:46:41.039Z,91.38
2022-09-16T01:49:11.564Z,91.34
2022-09-16T01:51:21.948Z,91.54
2022-09-16T01:53:32.584Z,91.68
2022-09-16T01:55:42.596Z,91.72
2022-09-16T01:58:15.354Z,91.58
2022-09-16T02:00:17.432Z,91.90
2022-09-16T02:02:27.294Z,91.83
2022-09-16T02:04:56.327Z,91.84
2022-09-16T02:07:02.062Z,92.16
2022-09-16T02:09:18.846Z,91.98
2022-09-16T02:11:21.537Z,91.92
2022-09-16T02:13:47.835Z,91.79
2022-09-16T02:15:52.725Z,91.67
2022-09-16T02:18:02.959Z,91.36
2022-09-16T02:20:17.308Z,91.00
2022-09-16T02:22:26.012Z,91.27
2022-09-16T02:24:29.054Z,91.04
2022-09-16T02:26:36.950Z,90.78
2022-09-16T02:28:42.145Z,91.08
2022-09-16T02:30:48.091Z,90.69
2022-09-16T02:33:00.724Z,89.90
2022-09-16T02:35:03.954Z,90.03
2022-09-16T02:37:11.913Z,89.98
2022-09-16T02:39:19.454Z,90.07
2022-09-16T02:41:20.925Z,89.94
2022-09-16T02:43:23.444Z,90.03
2022-09-16T02:45:38.914Z,89.73
2022-09-16T02:48:03.419Z,90.18
2022-09-16T02:50:17.003Z,90.39
2022-09-16T02:52:44.718Z,90.75
2022-09-16T02:55:05.228Z,91.19
2022-09-16T02:57:07.073Z,91.77
2022-09-16T02:59:11.926Z,92.14
2022-09-16T03:01:13.863Z,92.58
2022-09-16T03:03:15.571Z,92.36
2022-09-16T03:05:17.032Z,92.65
2022-09-16T03:07:18.711Z,92.49
2022-09-16T03:09:24.028Z,93.15
2022-09-16T03:11:48.723Z,93.06
2022-09-16T03:14:14.559Z,93.22
2022-09-16T03:16:36.378Z,93.63
2022-09-16T03:18:40.573Z,93.95
2022-09-16T03:20:56.091Z,94.21
2022-09-16T03:23:00.221Z,93.89
2022-09-16T03:25:17.003Z,94.59
2022-09-16T03:27:31.855Z,94.94
2022-09-16T03:29:43.724Z,94.86
2022-09-16T03:31:50.040Z,94.97
2022-09-16T03:34:02.662Z,95.28
2022-09-16T03:36:08.943Z,95.47
2022-09-16T03:38:12.342Z,95.31
2022-09-16T03:40:17.459Z,95.61
2022-09-16T03:42:20.195Z,95.33
2022-09-16T03:44:21.647Z,95.36
2022-09-16T03:46:23.577Z,95.77
2022-09-16T03:48:25.263Z,95.65
2022-09-16T03:50:26.674Z,95.65
2022-09-16T03:52:28.127Z,95.50
2022-09-16T03:54:29.592Z,95.34
2022-09-16T03:56:31.055Z,95.39
2022-09-16T03:58:32.524Z,95.60
2022-09-16T04:00:34.039Z,95.49
2022-09-16T04:02:35.765Z,95.53
2022-09-16T04:04:37.280Z,95.15
2022-09-16T04:06:38.837Z,95.14
2022-09-16T04:08:40.261Z,95.26
2022-09-16T04:10:41.691Z,95.23
2022-09-16T04:12:43.172Z,95.01
2022-09-16T04:14:44.677Z,95.27
2022-09-16T04:16:46.111Z,95.34
2022-09-16T04:18:48.389Z,95.05
2022-09-16T04:20:49.819Z,95.33
2022-09-16T04:22:51.263Z,95.04
2022-09-16T04:24:52.712Z,95.11
2022-09-16T04:26:54.205Z,95.26
2022-09-16T04:28:55.710Z,94.91
2022-09-16T04:31:02.581Z,95.34
2022-09-16T04:33:04.113Z,95.33
2022-09-16T04:35:06.070Z,94.67
2022-09-16T04:37:07.609Z,94.53
2022-09-16T04:39:09.035Z,94.48
2022-09-16T04:41:19.687Z,94.60
2022-09-16T04:43:21.136Z,94.09
2022-09-16T04:45:22.613Z,93.80
2022-09-16T04:47:24.037Z,94.15
2022-09-16T04:49:25.506Z,94.28
2022-09-16T04:51:28.336Z,93.63
2022-09-16T04:53:29.789Z,93.92
2022-09-16T04:55:31.453Z,93.75
2022-09-16T04:57:33.238Z,94.11
2022-09-16T04:59:34.670Z,94.04
2022-09-16T05:01:38.382Z,93.73
2022-09-16T05:03:44.890Z,93.57
2022-09-16T05:05:46.341Z,93.72
2022-09-16T05:07:57.895Z,93.67
2022-09-16T05:09:59.337Z,94.01
2022-09-16T05:12:00.948Z,94.00
2022-09-16T05:14:04.349Z,93.61
2022-09-16T05:16:09.072Z,93.90
2022-09-16T05:18:10.567Z,94.12
2022-09-16T05:20:14.131Z,94.02
2022-09-16T05:22:15.588Z,93.64
2022-09-16T05:24:17.255Z,93.51
2022-09-16T05:26:24.673Z,93.76
2022-09-16T05:28:26.093Z,93.79
2022-09-16T05:30:27.599Z,94.31
2022-09-16T05:32:29.038Z,93.97
2022-09-16T05:34:30.537Z,94.54
2022-09-16T05:36:35.546Z,94.02
2022-09-16T05:38:37.208Z,94.23
2022-09-16T05:40:38.917Z,94.03
2022-09-16T05:42:40.385Z,94.29
2022-09-16T05:44:41.793Z,94.28
2022-09-16T05:46:43.856Z,93.92
2022-09-16T05:48:45.923Z,94.01
2022-09-16T05:51:02.707Z,93.69
2022-09-16T05:53:04.560Z,93.85
2022-09-16T05:55:06.635Z,94.01
2022-09-16T05:57:08.107Z,94.04
2022-09-16T05:59:11.637Z,93.61
2022-09-16T06:01:17.181Z,93.26
2022-09-16T06:03:19.070Z,93.48
2022-09-16T06:05:20.500Z,93.39
2022-09-16T06:07:21.971Z,93.23
2022-09-16T06:09:24.932Z,93.06
2022-09-16T06:11:27.883Z,93.21
2022-09-16T06:13:29.371Z,92.73
2022-09-16T06:15:31.595Z,92.71
2022-09-16T06:17:33.066Z,92.17
2022-09-16T06:19:34.496Z,92.14
2022-09-16T06:21:37.751Z,91.92
2022-09-16T06:23:40.154Z,91.92
2022-09-16T06:25:41.620Z,91.33
2022-09-16T06:27:43.070Z,91.27
2022-09-16T06:29:44.506Z,91.16
2022-09-16T06:31:46.016Z,91.02
2022-09-16T06:33:50.224Z,90.78
2022-09-16T06:35:53.431Z,90.42
2022-09-16T06:37:54.962Z,90.13
2022-09-16T06:39:56.431Z,89.81
2022-09-16T06:41:57.919Z,89.37
2022-09-16T06:44:00.147Z,88.83
2022-09-16T06:46:13.476Z,88.89
2022-09-16T06:48:15.074Z,88.92
2022-09-16T06:50:16.540Z,88.53
2022-09-16T06:52:19.193Z,88.07
2022-09-16T06:54:20.654Z,87.58
2022-09-16T06:56:22.530Z,87.10
2022-09-16T06:58:24.015Z,87.00
2022-09-16T07:00:25.608Z,86.10
2022-09-16T07:02:27.185Z,85.60
2022-09-16T07:04:28.731Z,85.62
2022-09-16T07:06:58.290Z,85.75
2022-09-16T07:08:54.128Z,85.16
2022-09-16T07:11:00.626Z,84.51
2022-09-16T07:13:02.116Z,84.39
2022-09-16T07:15:03.783Z,83.94
2022-09-16T07:17:05.644Z,84.41
2022-09-16T07:19:07.208Z,83.85
2022-09-16T07:21:14.142Z,83.36
2022-09-16T07:23:15.610Z,83.48
2022-09-16T07:25:17.292Z,83.54
2022-09-16T07:27:18.751Z,83.82
2022-09-16T07:29:20.860Z,83.40
2022-09-16T07:31:25.961Z,83.04
2022-09-16T07:33:27.558Z,83.64
2022-09-16T07:35:29.054Z,83.82
2022-09-16T07:37:30.486Z,83.47
2022-09-16T07:39:31.931Z,83.04
2022-09-16T07:41:36.406Z,82.50
2022-09-16T07:43:40.325Z,82.50
2022-09-16T07:45:41.795Z,82.18
2022-09-16T07:47:43.659Z,82.04
2022-09-16T07:49:45.344Z,81.60
2022-09-16T07:51:47.082Z,80.78
2022-09-16T07:53:52.954Z,80.29
2022-09-16T07:55:54.632Z,79.55
2022-09-16T07:57:56.611Z,79.46
2022-09-16T07:59:58.050Z,79.38
2022-09-16T08:01:59.569Z,79.18
2022-09-16T08:04:01.661Z,79.57
2022-09-16T08:06:06.186Z,79.90
2022-09-16T08:08:07.832Z,79.49
2022-09-16T08:10:09.569Z,78.91
2022-09-16T08:12:11.238Z,79.59
2022-09-16T08:14:12.718Z,78.55
2022-09-16T08:16:17.360Z,78.75
2022-09-16T08:18:18.875Z,79.14
2022-09-16T08:20:20.589Z,79.79
2022-09-16T08:22:23.539Z,78.92
2022-09-16T08:24:25.168Z,77.95
2022-09-16T08:26:26.916Z,77.48
2022-09-16T08:28:39.877Z,76.98
2022-09-16T08:30:53.393Z,75.67
2022-09-16T08:32:59.368Z,75.80
2022-09-16T08:35:01.478Z,75.67
2022-09-16T08:37:02.937Z,74.82
2022-09-16T08:39:04.606Z,74.73
2022-09-16T08:41:19.877Z,74.95
2022-09-16T08:43:55.799Z,74.29
2022-09-16T08:46:10.148Z,73.22
2022-09-16T08:48:28.502Z,72.86
2022-09-16T08:50:34.396Z,72.61
2022-09-16T08:52:38.952Z,73.16
2022-09-16T08:54:51.890Z,72.04
2022-09-16T08:57:01.392Z,72.11
2022-09-16T08:59:10.320Z,71.55
2022-09-16T09:01:41.348Z,71.38
2022-09-16T09:03:45.964Z,70.55
2022-09-16T09:05:53.615Z,69.12
2022-09-16T09:08:13.653Z,68.46
2022-09-16T09:10:49.395Z,67.34
2022-09-16T09:13:28.461Z,67.47
2022-09-16T09:15:50.437Z,66.85
2022-09-16T09:18:17.282Z,64.09
2022-09-16T09:20:45.554Z,63.92
2022-09-16T09:22:55.956Z,64.88
2022-09-16T09:25:06.565Z,63.97
2022-09-16T09:27:15.873Z,62.88
2022-09-16T09:29:24.839Z,64.59
2022-09-16T09:31:44.686Z,63.44
2022-09-16T09:34:03.871Z,62.92
2022-09-16T09:36:35.752Z,63.39
2022-09-16T09:38:49.459Z,64.26
2022-09-16T09:40:58.788Z,63.50
2022-09-16T09:43:10.934Z,62.74
2022-09-16T09:45:33.332Z,63.04
2022-09-16T09:48:06.123Z,63.67
2022-09-16T09:50:29.770Z,62.96
2022-09-16T09:52:40.064Z,62.83
2022-09-16T09:54:47.144Z,63.21
2022-09-16T09:56:53.321Z,62.80
2022-09-16T09:59:03.731Z,59.78
2022-09-16T10:01:05.491Z,59.31
2022-09-16T10:03:18.505Z,59.22
2022-09-16T10:05:26.344Z,59.17
2022-09-16T10:07:28.714Z,59.89
2022-09-16T10:09:30.550Z,60.51
2022-09-16T10:11:32.640Z,59.83
2022-09-16T10:13:34.210Z,59.25
2022-09-16T10:15:36.132Z,59.55
2022-09-16T10:17:37.800Z,58.84
2022-09-16T10:19:52.090Z,58.58
2022-09-16T10:21:56.655Z,58.47
2022-09-16T10:23:58.449Z,59.85
2022-09-16T10:26:21.269Z,59.56
2022-09-16T10:28:25.242Z,58.82
2022-09-16T10:30:33.245Z,55.47
2022-09-16T10:32:46.022Z,56.90
2022-09-16T10:34:48.280Z,56.65
2022-09-16T10:36:59.931Z,56.61
2022-09-16T10:39:05.459Z,55.71
2022-09-16T10:41:16.942Z,56.05
2022-09-16T10:43:18.665Z,54.38
2022-09-16T10:45:36.504Z,54.35
2022-09-16T10:47:38.947Z,55.10
2022-09-16T10:49:47.731Z,55.72
2022-09-16T10:51:49.413Z,55.95
2022-09-16T10:53:54.211Z,54.84
2022-09-16T10:56:01.762Z,54.35
2022-09-16T10:58:09.069Z,54.39
2022-09-16T11:00:21.735Z,53.24
2022-09-16T11:02:36.395Z,52.26
2022-09-16T11:04:43.557Z,52.62
2022-09-16T11:06:50.976Z,51.72
2022-09-16T11:08:58.166Z,51.05
2022-09-16T11:11:11.802Z,50.85
2022-09-16T11:13:27.807Z,51.29
2022-09-16T11:15:31.900Z,51.73
2022-09-16T11:17:44.327Z,52.24
2022-09-16T11:20:06.021Z,50.61
2022-09-16T11:22:31.822Z,51.77
2022-09-16T11:24:39.397Z,51.90
2022-09-16T11:27:03.074Z,53.10
2022-09-16T11:29:10.520Z,54.47
2022-09-16T11:31:31.330Z,52.30
2022-09-16T11:33:54.129Z,50.90
2022-09-16T11:36:10.730Z,49.98
2022-09-16T11:38:42.465Z,49.04
2022-09-16T11:40:47.443Z,50.02
2022-09-16T11:43:21.281Z,53.75
2022-09-16T11:45:28.520Z,60.83
2022-09-16T11:47:40.717Z,62.52
2022-09-16T11:50:11.723Z,65.60
2022-09-16T11:52:42.543Z,64.75
2022-09-16T11:55:20.419Z,65.30
2022-09-16T11:57:29.130Z,66.55
2022-09-16T11:59:39.728Z,66.58
2022-09-16T12:01:58.191Z,65.94
2022-09-16T12:04:07.771Z,66.26
2022-09-16T12:06:14.621Z,64.47
2022-09-16T12:08:54.959Z,62.98
2022-09-16T12:11:19.574Z,62.53
2022-09-16T12:13:26.758Z,58.98
2022-09-16T12:15:48.472Z,58.04
2022-09-16T12:17:57.529Z,58.35
2022-09-16T12:20:05.239Z,57.63
2022-09-16T12:22:11.881Z,57.84
2022-09-16T12:24:23.670Z,58.08
2022-09-16T12:26:36.370Z,57.71
2022-09-16T12:28:59.756Z,58.50
2022-09-16T12:31:23.896Z,60.31
2022-09-16T12:33:38.471Z,63.79
2022-09-16T12:35:45.546Z,67.96
2022-09-16T12:37:52.338Z,70.00
2022-09-16T12:39:54.001Z,71.98
2022-09-16T12:42:26.225Z,73.49
2022-09-16T12:44:59.942Z,74.07
2022-09-16T12:47:16.680Z,74.45
2022-09-16T12:49:55.445Z,73.20
2022-09-16T12:52:12.197Z,71.33
2022-09-16T12:55:04.122Z,70.85
2022-09-16T12:57:18.591Z,70.51
2022-09-16T12:59:46.980Z,69.78
2022-09-16T13:01:51.100Z,68.67
2022-09-16T13:03:58.141Z,66.46
2022-09-16T13:06:22.018Z,65.15
2022-09-16T13:08:30.589Z,64.35
2022-09-16T13:10:54.413Z,63.09
2022-09-16T13:13:00.388Z,62.58
2022-09-16T13:15:05.096Z,61.66
2022-09-16T13:17:06.532Z,61.85
2022-09-16T13:19:21.187Z,60.97
2022-09-16T13:21:39.267Z,62.07
2022-09-16T13:23:45.038Z,61.39
2022-09-16T13:25:59.808Z,60.83
2022-09-16T13:28:04.038Z,63.28
2022-09-16T13:30:08.273Z,65.59
2022-09-16T13:32:38.455Z,68.77
2022-09-16T13:34:39.995Z,71.25
2022-09-16T13:36:41.590Z,71.65
2022-09-16T13:38:46.906Z,71.85
2022-09-16T13:41:02.272Z,72.15
2022-09-16T13:43:09.610Z,71.56
2022-09-16T13:45:34.408Z,70.91
2022-09-16T13:47:40.258Z,71.10
2022-09-16T13:49:45.012Z,70.95
2022-09-16T13:51:48.987Z,69.81
2022-09-16T13:53:52.108Z,69.95
2022-09-16T13:56:20.208Z,69.00
2022-09-16T13:59:04.897Z,68.58
2022-09-16T14:01:27.899Z,68.44
2022-09-16T14:03:38.229Z,67.56
2022-09-16T14:05:58.757Z,67.60
2022-09-16T14:08:28.371Z,66.63
2022-09-16T14:10:48.406Z,66.11
2022-09-16T14:13:07.432Z,65.67
2022-09-16T14:15:10.413Z,65.23
2022-09-16T14:17:38.858Z,65.63
2022-09-16T14:19:42.416Z,65.38
2022-09-16T14:21:44.005Z,65.77
2022-09-16T14:23:45.525Z,66.05
2022-09-16T14:25:47.027Z,65.03
2022-09-16T14:27:48.526Z,65.40
2022-09-16T14:29:57.279Z,65.01
2022-09-16T14:31:59.070Z,65.65
2022-09-16T14:34:07.511Z,65.27
2022-09-16T14:36:23.879Z,65.83
2022-09-16T14:38:57.907Z,65.54
2022-09-16T14:40:59.471Z,66.33
2022-09-16T14:43:07.282Z,66.88
2022-09-16T14:45:16.925Z,68.20
2022-09-16T14:47:32.395Z,68.42
2022-09-16T14:49:47.282Z,69.10
2022-09-16T14:51:53.967Z,69.60
2022-09-16T14:54:13.889Z,70.57
2022-09-16T14:56:22.090Z,71.20
2022-09-16T14:58:27.837Z,71.95
2022-09-16T15:00:46.866Z,73.00
2022-09-16T15:03:10.857Z,74.30
2022-09-16T15:05:32.374Z,75.35
2022-09-16T15:07:46.255Z,76.56
2022-09-16T15:10:05.917Z,77.13
2022-09-16T15:12:19.804Z,78.10
2022-09-16T15:14:22.105Z,79.28
2022-09-16T15:16:24.571Z,80.30
2022-09-16T15:18:29.726Z,81.66
2022-09-16T15:20:41.255Z,82.70
2022-09-16T15:22:42.954Z,83.38
2022-09-16T15:24:47.794Z,84.34
2022-09-16T15:26:49.717Z,84.86
2022-09-16T15:29:05.411Z,85.67
2022-09-16T15:31:07.976Z,86.41
2022-09-16T15:33:34.353Z,87.34
2022-09-16T15:35:36.121Z,88.04
2022-09-16T15:37:37.595Z,88.46
2022-09-16T15:39:39.611Z,88.61
2022-09-16T15:41:41.366Z,89.52
2022-09-16T15:43:44.542Z,89.95
2022-09-16T15:45:58.572Z,90.38
2022-09-16T15:48:04.944Z,91.09
2022-09-16T15:50:09.855Z,91.35
2022-09-16T15:52:13.045Z,91.66
2022-09-16T15:54:14.436Z,91.84
2022-09-16T15:56:44.875Z,92.03
2022-09-16T15:58:54.237Z,92.67
2022-09-16T16:01:10.761Z,92.56
2022-09-16T16:03:20.632Z,93.19
2022-09-16T16:05:23.619Z,93.52
2022-09-16T16:07:47.643Z,93.92
2022-09-16T16:09:50.075Z,94.28
2022-09-16T16:11:52.649Z,94.31
2022-09-16T16:13:56.523Z,94.72
2022-09-16T16:16:00.176Z,94.98
2022-09-16T16:18:06.193Z,95.13
2022-09-16T16:20:08.647Z,95.03
2022-09-16T16:22:11.684Z,95.28
2022-09-16T16:24:14.244Z,95.13
2022-09-16T16:26:15.734Z,95.14
2022-09-16T16:28:17.181Z,95.43
2022-09-16T16:30:19.664Z,95.38
2022-09-16T16:32:21.108Z,95.68
2022-09-16T16:34:22.624Z,96.11
2022-09-16T16:36:24.328Z,95.85
2022-09-16T16:38:25.788Z,96.04
2022-09-16T16:40:27.348Z,96.19
2022-09-16T16:42:29.422Z,96.08
2022-09-16T16:44:30.893Z,96.16
2022-09-16T16:46:32.405Z,96.38
2022-09-16T16:48:34.224Z,96.31
2022-09-16T16:50:35.694Z,96.62
2022-09-16T16:52:37.624Z,97.13
2022-09-16T16:54:39.133Z,96.77
2022-09-16T16:56:40.817Z,96.82
2022-09-16T16:58:45.639Z,97.43
2022-09-16T17:00:48.519Z,97.59
2022-09-16T17:02:49.988Z,97.58
2022-09-16T17:04:51.524Z,97.69
2022-09-16T17:07:08.497Z,97.98
2022-09-16T17:09:17.048Z,98.20
2022-09-16T17:11:19.993Z,98.68
2022-09-16T17:13:21.406Z,98.96
2022-09-16T17:15:22.848Z,98.95
2022-09-16T17:17:28.938Z,98.94
2022-09-16T17:19:32.720Z,99.08
2022-09-16T17:21:36.122Z,99.33
2022-09-16T17:23:38.366Z,99.76
2022-09-16T17:25:39.796Z,99.54
2022-09-16T17:27:41.232Z,99.75
2022-09-16T17:29:42.666Z,99.86
2022-09-16T17:31:44.996Z,100.00
2022-09-16T17:33:47.792Z,100.00
2022-09-16T17:36:03.468Z,100.00
2022-09-16T17:38:07.042Z,100.00
2022-09-16T17:40:08.979Z,100.00
2022-09-16T17:42:10.441Z,100.00
2022-09-16T17:44:13.519Z,100.00
2022-09-16T17:46:18.704Z,100.00
2022-09-16T17:48:21.241Z,100.00
2022-09-16T17:50:23.207Z,100.00
2022-09-16T17:52:25.291Z,100.00
2022-09-16T17:54:26.779Z,100.00
2022-09-16T17:56:28.220Z,100.00
2022-09-16T17:58:30.155Z,100.00
2022-09-16T18:00:31.591Z,100.00
2022-09-16T18:02:36.185Z,100.00
2022-09-16T18:04:37.771Z,100.00
2022-09-16T18:06:41.979Z,100.00
2022-09-16T18:08:44.392Z,100.00
2022-09-16T18:10:52.632Z,100.00
2022-09-16T18:12:54.153Z,100.00
2022-09-16T18:14:55.602Z,100.00
2022-09-16T18:16:57.101Z,100.00
2022-09-16T18:19:00.524Z,100.00
2022-09-16T18:21:02.878Z,100.00
2022-09-16T18:23:04.338Z,100.00
2022-09-16T18:25:06.125Z,100.00
2022-09-16T18:27:07.543Z,100.00
2022-09-16T18:29:12.069Z,100.00
2022-09-16T18:31:19.361Z,100.00
2022-09-16T18:33:20.822Z,100.00
2022-09-16T18:35:22.286Z,100.00
2022-09-16T18:37:24.101Z,100.00
2022-09-16T18:39:25.609Z,100.00
2022-09-16T18:41:30.064Z,100.00
2022-09-16T18:43:31.547Z,100.00
2022-09-16T18:45:33.588Z,100.00
2022-09-16T18:47:35.012Z,100.00
2022-09-16T18:49:36.457Z,100.00
2022-09-16T18:51:40.631Z,100.00
2022-09-16T18:53:42.648Z,100.00
2022-09-16T18:55:44.081Z,100.00
2022-09-16T18:57:45.542Z,100.00
2022-09-16T18:59:47.071Z,100.00
2022-09-16T19:01:48.964Z,100.00
2022-09-16T19:03:52.153Z,100.00
2022-09-16T19:05:56.908Z,100.00
2022-09-16T19:07:58.352Z,100.00
2022-09-16T19:09:59.789Z,100.00
2022-09-16T19:12:02.449Z,100.00
2022-09-16T19:14:05.825Z,100.00
2022-09-16T19:16:07.600Z,100.00
2022-09-16T19:18:09.046Z,100.00
2022-09-16T19:20:10.495Z,100.00
2022-09-16T19:22:11.927Z,100.00
2022-09-16T19:24:18.869Z,100.00
2022-09-16T19:26:20.353Z,100.00
2022-09-16T19:28:21.765Z,100.00
2022-09-16T19:30:23.280Z,100.00
2022-09-16T19:32:24.765Z,100.00
2022-09-16T19:34:26.361Z,100.00
2022-09-16T19:36:32.969Z,100.00
2022-09-16T19:38:35.329Z,100.00
2022-09-16T19:40:36.873Z,100.00
2022-09-16T19:42:38.417Z,100.00
2022-09-16T19:44:39.849Z,100.00
2022-09-16T19:46:42.892Z,100.00
2022-09-16T19:48:46.765Z,100.00
2022-09-16T19:50:52.460Z,100.00
2022-09-16T19:52:53.929Z,100.00
2022-09-16T19:54:55.530Z,100.00
2022-09-16T19:56:57.059Z,100.00
2022-09-16T19:58:58.904Z,100.00
2022-09-16T20:01:07.128Z,100.00
2022-09-16T20:03:09.034Z,100.00
2022-09-16T20:05:11.260Z,100.00
2022-09-16T20:07:16.920Z,100.00
2022-09-16T20:09:19.672Z,100.00
2022-09-16T20:11:24.209Z,100.00
2022-09-16T20:13:25.691Z,100.00
2022-09-16T20:15:27.118Z,100.00
2022-09-16T20:17:28.600Z,100.00
2022-09-16T20:19:30.029Z,100.00
2022-09-16T20:21:34.971Z,100.00
2022-09-16T20:23:37.817Z,100.00
2022-09-16T20:25:39.275Z,100.00
2022-09-16T20:27:40.718Z,100.00
2022-09-16T20:29:42.178Z,100.00
2022-09-16T20:31:44.984Z,100.00
2022-09-16T20:33:47.173Z,100.00
2022-09-16T20:35:48.643Z,100.00
2022-09-16T20:37:50.096Z,100.00
2022-09-16T20:39:51.760Z,100.00
2022-09-16T20:41:53.309Z,100.00
2022-09-16T20:43:54.849Z,100.00
2022-09-16T20:45:56.383Z,100.00
2022-09-16T20:47:57.843Z,100.00
2022-09-16T20:49:59.613Z,100.00
2022-09-16T20:52:01.178Z,100.00
2022-09-16T20:54:09.099Z,100.00
2022-09-16T20:56:15.630Z,100.00
2022-09-16T20:58:17.066Z,100.00
2022-09-16T21:00:18.572Z,100.00
2022-09-16T21:02:20.106Z,100.00
2022-09-16T21:04:21.650Z,100.00
2022-09-16T21:06:24.458Z,100.00
2022-09-16T21:08:25.896Z,100.00
2022-09-16T21:10:27.324Z,100.00
2022-09-16T21:12:31.842Z,100.00
2022-09-16T21:14:33.269Z,100.00
2022-09-16T21:16:37.545Z,100.00
2022-09-16T21:18:39.937Z,100.00
2022-09-16T21:20:41.368Z,100.00
2022-09-16T21:22:44.540Z,100.00
2022-09-16T21:24:46.065Z,100.00
2022-09-16T21:26:47.535Z,100.00
2022-09-16T21:29:10.881Z,100.00
2022-09-16T21:31:14.653Z,100.00
2022-09-16T21:33:17.782Z,100.00
2022-09-16T21:35:19.234Z,100.00
2022-09-16T21:37:20.700Z,100.00
2022-09-16T21:39:22.195Z,100.00
2022-09-16T21:41:24.921Z,100.00
2022-09-16T21:43:29.854Z,100.00
2022-09-16T21:45:31.270Z,100.00
2022-09-16T21:47:32.704Z,100.00
2022-09-16T21:49:34.132Z,100.00
2022-09-16T21:51:37.675Z,100.00
2022-09-16T21:53:43.144Z,100.00
2022-09-16T21:55:44.731Z,100.00
2022-09-16T21:57:46.804Z,100.00
2022-09-16T21:59:48.252Z,100.00
2022-09-16T22:01:51.059Z,100.00
2022-09-16T22:04:01.216Z,100.00
2022-09-16T22:06:03.925Z,100.00
2022-09-16T22:08:05.344Z,100.00
2022-09-16T22:10:07.337Z,100.00
2022-09-16T22:12:08.785Z,100.00
2022-09-16T22:14:11.202Z,100.00
2022-09-16T22:16:18.407Z,100.00
2022-09-16T22:18:20.063Z,100.00
2022-09-16T22:20:23.669Z,100.00
2022-09-16T22:22:25.113Z,100.00
2022-09-16T22:24:26.567Z,100.00
2022-09-16T22:26:29.327Z,100.00
2022-09-16T22:28:31.513Z,100.00
2022-09-16T22:30:34.343Z,100.00
2022-09-16T22:32:40.281Z,100.00
2022-09-16T22:34:42.554Z,100.00
2022-09-16T22:36:44.063Z,100.00
2022-09-16T22:38:50.452Z,100.00
2022-09-16T22:40:51.879Z,100.00
2022-09-16T22:42:53.672Z,100.00
2022-09-16T22:44:55.155Z,100.00
2022-09-16T22:46:56.691Z,100.00
2022-09-16T22:48:59.487Z,100.00
2022-09-16T22:51:02.535Z,100.00
2022-09-16T22:53:03.999Z,100.00
2022-09-16T22:55:08.026Z,100.00
2022-09-16T22:57:09.439Z,100.00
2022-09-16T22:59:17.965Z,100.00
2022-09-16T23:01:22.353Z,100.00
2022-09-16T23:03:23.803Z,100.00
2022-09-16T23:05:25.233Z,100.00
2022-09-16T23:07:26.681Z,100.00
2022-09-16T23:09:28.188Z,100.00
2022-09-16T23:11:32.441Z,99.93
2022-09-16T23:13:35.562Z,100.00
2022-09-16T23:15:37.616Z,99.68
2022-09-16T23:17:41.070Z,99.82
2022-09-16T23:19:42.499Z,99.92
2022-09-16T23:21:43.995Z,99.94
2022-09-16T23:23:48.185Z,100.00
2022-09-16T23:25:49.622Z,100.00
2022-09-16T23:27:51.874Z,100.00
2022-09-16T23:29:53.382Z,100.00
2022-09-16T23:31:54.923Z,100.00
2022-09-16T23:33:56.959Z,100.00
2022-09-16T23:35:58.541Z,100.00
2022-09-16T23:38:00.012Z,100.00
2022-09-16T23:40:02.062Z,100.00
2022-09-16T23:42:03.749Z,100.00
2022-09-16T23:44:05.801Z,100.00
2022-09-16T23:46:08.448Z,100.00
2022-09-16T23:48:09.907Z,100.00
2022-09-16T23:50:11.668Z,100.00
2022-09-16T23:52:13.564Z,100.00
2022-09-16T23:54:15.634Z,99.70
2022-09-16T23:56:18.902Z,99.59
2022-09-16T23:58:20.494Z,99.35
